Time;durP1;ratioP1;P1;durP2;ratioP2;P2;SDS_P1;SDS_P2;PMS_P1;PMS_P2;Temp;Humidity;BMP_temperature;BMP_pressure;BME280_temperature;BME280_humidity;BME280_pressure;Samples;Min_cycle;Max_cycle;Signal;HPM_P1;HPM_P2
2023/03/30 00:01:10;;;;;;;2.00;1.80;;;19.40;53.80;;;;;;5014051;28;20184;-68
2023/03/30 00:03:37;;;;;;;4.05;2.15;;;19.40;53.80;;;;;;5015007;28;20234;-67
2023/03/30 00:06:04;;;;;;;4.20;2.22;;;19.40;53.80;;;;;;5013767;28;20192;-67
2023/03/30 00:08:32;;;;;;;2.40;1.70;;;19.40;53.80;;;;;;4985202;28;20208;-68
2023/03/30 00:11:12;;;;;;;3.17;1.80;;;19.40;53.80;;;;;;4978042;28;20236;-68
2023/03/30 00:13:38;;;;;;;4.45;1.75;;;19.40;53.80;;;;;;4977807;28;20173;-68
2023/03/30 00:16:07;;;;;;;5.18;1.98;;;19.40;53.80;;;;;;4977559;28;20311;-68
2023/03/30 00:18:33;;;;;;;2.92;1.60;;;19.40;53.90;;;;;;5000948;28;20203;-68
2023/03/30 00:21:01;;;;;;;2.53;1.67;;;19.40;53.90;;;;;;5001848;28;20231;-68
2023/03/30 00:23:28;;;;;;;3.22;2.30;;;19.40;53.90;;;;;;4977794;28;20189;-66
2023/03/30 00:25:54;;;;;;;4.50;1.90;;;19.40;53.80;;;;;;4977076;28;20189;-68
2023/03/30 00:28:21;;;;;;;2.67;1.77;;;19.40;53.90;;;;;;4976466;28;20355;-68
2023/03/30 00:30:48;;;;;;;3.75;1.70;;;19.40;53.90;;;;;;4992962;28;20235;-68
2023/03/30 00:33:14;;;;;;;1.98;1.77;;;19.40;54.00;;;;;;4960780;28;20235;-68
2023/03/30 00:35:40;;;;;;;4.28;2.10;;;19.30;53.90;;;;;;4992708;28;20221;-69
2023/03/30 00:38:06;;;;;;;2.15;1.90;;;19.40;54.00;;;;;;5002189;28;20220;-69
2023/03/30 00:40:33;;;;;;;2.47;1.60;;;19.30;53.90;;;;;;4960391;28;20189;-68
2023/03/30 00:43:10;;;;;;;2.67;1.63;;;19.40;53.90;;;;;;4984958;28;20188;-66
2023/03/30 00:45:37;;;;;;;4.13;1.63;;;19.40;54.00;;;;;;4976859;28;20199;-68
2023/03/30 00:48:17;;;;;;;2.35;1.52;;;19.30;53.90;;;;;;4995848;28;20208;-68
2023/03/30 00:50:48;;;;;;;2.53;1.80;;;19.40;54.00;;;;;;4960122;28;20201;-68
2023/03/30 00:53:26;;;;;;;1.65;1.30;;;19.40;54.00;;;;;;4976663;28;20204;-67
2023/03/30 00:55:55;;;;;;;2.58;1.60;;;19.40;54.00;;;;;;4992794;28;20212;-68
2023/03/30 00:58:23;;;;;;;4.05;1.90;;;19.30;53.90;;;;;;4992181;28;20319;-68
2023/03/30 01:00:50;;;;;;;2.65;1.48;;;19.40;54.00;;;;;;4976159;28;20184;-68
2023/03/30 01:03:31;;;;;;;3.20;1.70;;;19.30;53.90;;;;;;4976282;28;20187;-67
2023/03/30 01:06:01;;;;;;;2.10;1.50;;;19.30;53.90;;;;;;4992226;28;20188;-68
2023/03/30 01:08:31;;;;;;;2.67;1.63;;;19.30;53.90;;;;;;4976117;28;20216;-68
2023/03/30 01:11:01;;;;;;;2.70;1.88;;;19.30;53.90;;;;;;4999705;28;20747;-68
2023/03/30 01:13:43;;;;;;;3.03;1.63;;;19.30;53.90;;;;;;4976285;28;20319;-68
2023/03/30 01:16:12;;;;;;;1.85;1.50;;;19.40;54.00;;;;;;4960028;28;20212;-68
2023/03/30 01:19:00;;;;;;;3.35;1.52;;;19.40;54.00;;;;;;4989064;28;20301;-67
2023/03/30 01:22:19;;;;;;;4.05;2.00;;;19.30;53.90;;;;;;4975880;28;20207;-67
2023/03/30 01:25:21;;;;;;;3.00;1.40;;;19.30;54.00;;;;;;4976124;28;20268;-68
2023/03/30 01:28:22;;;;;;;1.92;1.70;;;19.30;54.00;;;;;;4999643;28;20592;-68
2023/03/30 01:31:20;;;;;;;2.30;1.70;;;19.40;54.00;;;;;;4976152;28;20188;-67
2023/03/30 01:34:16;;;;;;;3.10;1.40;;;19.30;54.00;;;;;;4973743;28;20193;-68
2023/03/30 01:37:09;;;;;;;1.95;1.55;;;19.30;54.00;;;;;;4991994;28;20217;-66
2023/03/30 01:39:47;;;;;;;3.42;1.77;;;19.30;54.00;;;;;;4991722;28;20199;-68
2023/03/30 01:42:42;;;;;;;2.05;1.50;;;19.30;54.00;;;;;;4985576;28;20679;-68
2023/03/30 01:45:11;;;;;;;3.47;1.63;;;19.30;54.00;;;;;;4991644;28;20216;-68
2023/03/30 01:48:12;;;;;;;4.38;1.98;;;19.30;54.10;;;;;;4991218;28;20208;-67
2023/03/30 01:50:59;;;;;;;2.05;1.63;;;19.30;54.10;;;;;;4991410;28;20188;-68
2023/03/30 01:53:45;;;;;;;2.70;1.77;;;19.40;54.10;;;;;;5002985;28;20185;-69
2023/03/30 01:56:18;;;;;;;2.33;1.85;;;19.40;54.10;;;;;;4991274;28;20216;-68
2023/03/30 01:58:56;;;;;;;4.07;1.67;;;19.30;54.10;;;;;;4975103;28;20224;-68
2023/03/30 02:01:24;;;;;;;3.83;1.63;;;19.40;54.20;;;;;;4975323;28;20316;-68
2023/03/30 02:03:56;;;;;;;3.70;1.55;;;19.40;54.20;;;;;;4975295;28;20193;-68
2023/03/30 02:06:43;;;;;;;3.53;1.70;;;19.40;54.20;;;;;;4983136;28;20187;-68
2023/03/30 02:09:16;;;;;;;2.60;1.55;;;19.30;54.20;;;;;;4976369;28;20223;-68
2023/03/30 02:11:48;;;;;;;3.80;1.63;;;19.30;54.20;;;;;;4990017;28;20184;-68
2023/03/30 02:14:18;;;;;;;1.95;1.63;;;19.30;54.20;;;;;;4975386;28;20283;-68
2023/03/30 02:16:47;;;;;;;3.63;1.90;;;19.30;54.20;;;;;;4986253;28;20224;-70
2023/03/30 02:19:14;;;;;;;3.63;1.95;;;19.30;54.20;;;;;;4974728;28;20251;-68
2023/03/30 02:21:41;;;;;;;2.70;1.58;;;19.30;54.20;;;;;;4991267;28;20268;-68
2023/03/30 02:24:16;;;;;;;1.70;1.40;;;19.30;54.20;;;;;;4974818;28;20188;-68
2023/03/30 02:26:50;;;;;;;2.30;1.60;;;19.40;54.20;;;;;;4975149;28;20203;-68
2023/03/30 02:29:20;;;;;;;2.70;1.80;;;19.40;54.30;;;;;;4974700;28;20286;-68
2023/03/30 02:31:49;;;;;;;3.17;1.67;;;19.30;54.20;;;;;;4992224;28;20188;-68
2023/03/30 02:34:32;;;;;;;4.40;1.33;;;19.30;54.20;;;;;;4992559;28;20189;-68
2023/03/30 02:37:15;;;;;;;2.03;1.25;;;19.40;54.40;;;;;;4989782;28;20200;-68
2023/03/30 02:40:13;;;;;;;4.25;1.73;;;19.40;54.40;;;;;;4958406;28;20188;-68
2023/03/30 02:43:17;;;;;;;1.77;1.40;;;19.30;54.30;;;;;;4991032;28;20196;-68
2023/03/30 02:45:56;;;;;;;5.30;1.92;;;19.40;54.30;;;;;;4974477;28;20224;-68
2023/03/30 02:48:41;;;;;;;2.95;1.65;;;19.30;54.40;;;;;;4959158;28;20200;-68
2023/03/30 02:51:39;;;;;;;2.30;1.20;;;19.30;54.30;;;;;;4947726;28;20186;-69
2023/03/30 02:54:47;;;;;;;2.35;1.73;;;19.30;54.40;;;;;;4984868;28;20690;-68
2023/03/30 02:57:43;;;;;;;2.33;1.52;;;19.30;54.30;;;;;;4975430;28;20203;-68
2023/03/30 03:01:03;;;;;;;2.35;1.35;;;19.30;54.40;;;;;;4987711;28;20196;-68
2023/03/30 03:03:45;;;;;;;3.03;1.65;;;19.40;54.40;;;;;;4976043;28;20181;-68
2023/03/30 03:06:13;;;;;;;2.67;1.40;;;19.30;54.30;;;;;;4974482;28;20700;-68
2023/03/30 03:08:48;;;;;;;3.78;1.85;;;19.40;54.40;;;;;;4990300;28;20208;-68
2023/03/30 03:11:21;;;;;;;2.97;1.50;;;19.30;54.40;;;;;;4990730;28;20272;-68
2023/03/30 03:13:47;;;;;;;3.30;1.80;;;19.30;54.40;;;;;;4974427;28;20189;-68
2023/03/30 03:16:14;;;;;;;3.63;1.63;;;19.30;54.50;;;;;;4974161;28;20292;-68
2023/03/30 03:18:52;;;;;;;2.97;1.58;;;19.30;54.50;;;;;;4970082;28;20211;-69
2023/03/30 03:21:18;;;;;;;4.03;1.85;;;19.30;54.50;;;;;;4978001;28;20181;-69
2023/03/30 03:23:47;;;;;;;3.78;1.70;;;19.40;54.50;;;;;;4977851;28;20192;-68
2023/03/30 03:26:14;;;;;;;3.90;1.48;;;19.40;54.60;;;;;;4962244;28;20192;-68
2023/03/30 03:28:40;;;;;;;2.47;1.30;;;19.40;54.60;;;;;;4993811;28;20258;-68
2023/03/30 03:31:06;;;;;;;3.63;1.70;;;19.30;54.50;;;;;;4977913;28;20319;-68
2023/03/30 03:33:34;;;;;;;2.97;1.48;;;19.30;54.50;;;;;;4994487;28;20272;-68
2023/03/30 03:36:06;;;;;;;3.63;1.77;;;19.30;54.50;;;;;;4993429;28;20209;-68
2023/03/30 03:38:35;;;;;;;2.25;1.75;;;19.30;54.50;;;;;;4958775;28;20288;-67
2023/03/30 03:41:01;;;;;;;1.77;1.33;;;19.30;54.50;;;;;;4960767;28;20193;-68
2023/03/30 03:43:29;;;;;;;2.63;1.40;;;19.30;54.50;;;;;;4974438;28;20240;-68
2023/03/30 03:45:55;;;;;;;3.10;1.67;;;19.30;54.50;;;;;;4991761;28;20242;-68
2023/03/30 03:48:23;;;;;;;3.95;1.77;;;19.30;54.60;;;;;;4994917;28;20217;-68
2023/03/30 03:50:54;;;;;;;2.22;1.48;;;19.40;54.70;;;;;;4977440;28;20193;-68
2023/03/30 03:53:23;;;;;;;2.30;1.50;;;19.30;54.60;;;;;;4977615;28;20189;-68
2023/03/30 03:55:53;;;;;;;2.67;1.60;;;19.40;54.70;;;;;;4993516;28;20213;-68
2023/03/30 03:58:20;;;;;;;2.55;1.60;;;19.30;54.60;;;;;;4993011;28;20209;-68
2023/03/30 04:00:47;;;;;;;3.70;1.75;;;19.30;54.70;;;;;;4974487;28;20194;-68
2023/03/30 04:03:13;;;;;;;3.58;1.60;;;19.30;54.70;;;;;;4978770;28;20187;-68
2023/03/30 04:05:40;;;;;;;3.00;1.55;;;19.30;54.70;;;;;;4977177;28;20188;-68
2023/03/30 04:08:09;;;;;;;2.80;1.65;;;19.30;54.70;;;;;;4993282;28;20213;-68
2023/03/30 04:10:40;;;;;;;2.97;1.50;;;19.30;54.70;;;;;;4993156;28;20192;-68
2023/03/30 04:13:24;;;;;;;1.95;1.45;;;19.30;54.70;;;;;;4979663;28;20191;-68
2023/03/30 04:16:10;;;;;;;2.10;1.40;;;19.30;54.70;;;;;;4973808;28;20218;-69
2023/03/30 04:18:56;;;;;;;2.88;1.48;;;19.30;54.80;;;;;;4991360;28;20232;-68
2023/03/30 04:21:50;;;;;;;2.97;1.65;;;19.30;54.70;;;;;;4996335;28;20196;-68
2023/03/30 04:24:35;;;;;;;2.60;1.50;;;19.30;54.80;;;;;;4993135;28;20234;-68
2023/03/30 04:27:19;;;;;;;2.55;1.70;;;19.30;54.80;;;;;;4979327;28;20739;-68
2023/03/30 04:30:11;;;;;;;2.88;1.65;;;19.30;54.80;;;;;;4963758;28;20181;-68
2023/03/30 04:33:04;;;;;;;2.45;1.80;;;19.30;54.80;;;;;;4993233;28;20208;-68
2023/03/30 04:35:53;;;;;;;3.05;1.63;;;19.30;54.80;;;;;;4955314;28;20259;-68
2023/03/30 04:38:57;;;;;;;4.40;1.70;;;19.30;54.80;;;;;;4992748;28;20228;-69
2023/03/30 04:41:51;;;;;;;2.45;1.70;;;19.30;54.80;;;;;;4963956;28;20193;-68
2023/03/30 04:44:32;;;;;;;4.30;1.58;;;19.30;54.80;;;;;;4962638;28;20184;-68
2023/03/30 04:47:25;;;;;;;4.38;1.77;;;19.30;54.80;;;;;;4957896;28;20274;-68
2023/03/30 04:50:29;;;;;;;2.78;1.50;;;19.30;54.80;;;;;;4996091;28;20258;-68
2023/03/30 04:53:15;;;;;;;3.60;1.60;;;19.30;54.80;;;;;;4971354;28;20809;-68
2023/03/30 04:56:00;;;;;;;3.20;1.40;;;19.30;54.80;;;;;;4993687;28;20291;-69
2023/03/30 04:58:44;;;;;;;2.60;1.70;;;19.30;55.30;;;;;;4992521;28;20244;-68
2023/03/30 05:01:45;;;;;;;5.22;2.13;;;19.30;54.90;;;;;;4980806;28;20260;-68
2023/03/30 05:04:31;;;;;;;3.50;1.90;;;19.30;54.90;;;;;;4978506;28;20185;-68
2023/03/30 05:07:15;;;;;;;3.17;1.58;;;19.30;54.80;;;;;;4985895;28;20262;-68
2023/03/30 05:09:57;;;;;;;2.83;1.60;;;19.30;54.90;;;;;;4989839;28;20208;-68
2023/03/30 05:12:41;;;;;;;3.60;2.05;;;19.30;54.90;;;;;;4978766;28;20227;-68
2023/03/30 05:15:31;;;;;;;3.75;1.80;;;19.30;54.90;;;;;;4986380;28;20212;-69
2023/03/30 05:18:37;;;;;;;3.05;2.08;;;19.30;54.90;;;;;;4971111;28;20310;-68
2023/03/30 05:21:14;;;;;;;2.60;1.60;;;19.30;54.90;;;;;;4976241;28;20191;-67
2023/03/30 05:24:04;;;;;;;2.95;1.58;;;19.30;54.90;;;;;;4992868;28;20235;-69
2023/03/30 05:26:53;;;;;;;2.40;1.48;;;19.30;54.90;;;;;;4984285;28;20189;-68
2023/03/30 05:29:34;;;;;;;2.75;1.70;;;19.30;55.00;;;;;;4970868;28;20231;-68
2023/03/30 05:32:17;;;;;;;3.40;1.85;;;19.30;55.00;;;;;;4992554;28;20243;-69
2023/03/30 05:34:59;;;;;;;3.88;1.92;;;19.30;55.00;;;;;;4976440;28;20209;-67
2023/03/30 05:37:50;;;;;;;3.83;2.08;;;19.30;55.00;;;;;;4992484;28;20778;-69
2023/03/30 05:40:43;;;;;;;2.42;1.63;;;19.30;54.90;;;;;;4985022;28;20286;-68
2023/03/30 05:43:18;;;;;;;3.60;1.77;;;19.30;55.00;;;;;;4992409;28;20314;-68
2023/03/30 05:46:03;;;;;;;3.08;1.40;;;19.30;55.00;;;;;;4992605;28;20211;-68
2023/03/30 05:48:47;;;;;;;3.42;1.63;;;19.30;54.90;;;;;;4993293;28;20227;-67
2023/03/30 05:51:28;;;;;;;2.65;1.77;;;19.30;55.00;;;;;;4992496;28;20684;-68
2023/03/30 05:54:04;;;;;;;3.15;1.35;;;19.30;55.00;;;;;;4990859;28;20262;-68
2023/03/30 05:56:45;;;;;;;5.20;1.90;;;19.30;55.00;;;;;;4962243;28;20303;-68
2023/03/30 05:59:29;;;;;;;3.60;1.63;;;19.30;55.00;;;;;;5012837;23;20229;-72
2023/03/30 06:02:30;;;;;;;5.07;1.77;;;19.30;55.00;;;;;;4914412;29;20327;-72
2023/03/30 06:05:03;;;;;;;4.13;1.77;;;19.30;55.00;;;;;;4964109;28;20197;-72
2023/03/30 06:07:29;;;;;;;2.47;1.52;;;19.30;55.00;;;;;;4958103;28;20212;-71
2023/03/30 06:09:58;;;;;;;2.80;1.80;;;19.30;55.00;;;;;;4957278;28;20693;-71
2023/03/30 06:12:26;;;;;;;4.05;1.98;;;19.30;55.00;;;;;;4957202;28;20196;-72
2023/03/30 06:14:52;;;;;;;4.20;1.90;;;19.30;55.00;;;;;;4941044;28;20217;-72
2023/03/30 06:17:31;;;;;;;2.63;1.80;;;19.30;55.00;;;;;;4942953;28;20189;-71
2023/03/30 06:19:57;;;;;;;4.63;1.95;;;19.30;55.10;;;;;;4941305;28;20204;-71
2023/03/30 06:22:23;;;;;;;4.22;1.90;;;19.30;55.10;;;;;;4957033;28;20193;-71
2023/03/30 06:24:57;;;;;;;4.45;1.58;;;19.30;55.10;;;;;;4942430;28;20193;-71
2023/03/30 06:27:23;;;;;;;2.88;1.85;;;19.30;55.10;;;;;;4956457;28;20181;-71
2023/03/30 06:29:49;;;;;;;4.32;1.90;;;19.30;55.20;;;;;;4974228;28;20185;-72
2023/03/30 06:32:15;;;;;;;3.40;1.90;;;19.30;55.10;;;;;;4940869;28;20186;-71
2023/03/30 06:34:59;;;;;;;9.02;2.42;;;19.30;55.20;;;;;;4957646;28;20226;-73
2023/03/30 06:37:27;;;;;;;7.35;2.47;;;19.30;55.70;;;;;;4957332;28;20200;-71
2023/03/30 06:39:53;;;;;;;4.15;2.22;;;19.30;55.40;;;;;;4941301;28;20203;-71
2023/03/30 06:42:19;;;;;;;5.63;1.80;;;19.30;55.40;;;;;;4957454;28;20194;-71
2023/03/30 06:45:00;;;;;;;5.40;1.60;;;19.30;55.50;;;;;;4957173;28;20248;-71
2023/03/30 06:47:26;;;;;;;5.78;1.70;;;19.30;55.40;;;;;;4941147;28;20185;-71
2023/03/30 06:49:52;;;;;;;2.60;1.60;;;19.30;55.40;;;;;;4940176;28;20729;-71
2023/03/30 06:52:37;;;;;;;3.60;1.60;;;19.30;55.40;;;;;;4951435;28;20229;-71
2023/03/30 06:55:05;;;;;;;2.72;1.85;;;19.30;55.40;;;;;;4960565;28;20309;-71
2023/03/30 06:57:31;;;;;;;3.15;1.50;;;19.30;55.40;;;;;;4944749;28;20189;-71
2023/03/30 06:59:57;;;;;;;6.15;1.98;;;19.30;55.50;;;;;;4960907;28;20193;-71
2023/03/30 07:02:41;;;;;;;2.45;1.88;;;19.30;55.40;;;;;;4963115;28;20181;-70
2023/03/30 07:05:16;;;;;;;3.47;1.80;;;19.30;55.40;;;;;;4961293;28;20210;-71
2023/03/30 07:07:52;;;;;;;3.28;1.90;;;19.30;55.40;;;;;;4947379;28;20595;-71
2023/03/30 07:10:18;;;;;;;5.00;1.98;;;19.30;55.40;;;;;;4945205;28;20193;-71
2023/03/30 07:12:44;;;;;;;5.13;2.10;;;19.30;55.40;;;;;;4944130;28;20201;-70
2023/03/30 07:15:11;;;;;;;4.65;1.88;;;19.30;55.40;;;;;;4943526;28;20309;-71
2023/03/30 07:17:38;;;;;;;3.72;1.95;;;19.40;55.50;;;;;;4959735;28;20241;-71
2023/03/30 07:20:06;;;;;;;3.05;1.95;;;19.40;55.50;;;;;;4943671;28;20186;-71
2023/03/30 07:22:36;;;;;;;2.83;1.90;;;19.40;55.50;;;;;;4959522;28;20186;-71
2023/03/30 07:25:03;;;;;;;2.92;2.05;;;19.40;55.50;;;;;;4943796;28;20189;-71
2023/03/30 07:27:29;;;;;;;2.75;1.75;;;19.40;55.50;;;;;;4959215;28;20276;-71
2023/03/30 07:29:57;;;;;;;4.60;2.10;;;19.40;55.50;;;;;;4959399;28;20194;-71
2023/03/30 07:32:23;;;;;;;3.85;1.98;;;19.40;55.50;;;;;;4959757;28;20198;-71
2023/03/30 07:34:49;;;;;;;3.90;1.95;;;19.30;55.40;;;;;;4943572;28;20208;-71
2023/03/30 07:37:16;;;;;;;4.18;1.98;;;19.40;55.50;;;;;;4943601;28;20182;-71
2023/03/30 07:39:43;;;;;;;6.20;2.40;;;19.30;55.40;;;;;;4991674;28;20205;-71
2023/03/30 07:42:09;;;;;;;3.22;1.88;;;19.30;55.50;;;;;;4943216;28;20221;-71
2023/03/30 07:44:35;;;;;;;2.88;1.70;;;19.40;55.50;;;;;;4943502;28;20224;-71
2023/03/30 07:47:05;;;;;;;4.20;1.73;;;19.30;55.40;;;;;;4944082;28;20193;-71
2023/03/30 07:49:32;;;;;;;4.18;1.95;;;19.40;55.50;;;;;;4943466;28;20237;-71
2023/03/30 07:51:58;;;;;;;4.10;1.98;;;19.40;55.60;;;;;;4959280;28;20204;-71
2023/03/30 07:54:36;;;;;;;2.60;1.92;;;19.40;55.50;;;;;;4946454;28;20228;-71
2023/03/30 07:57:16;;;;;;;1.98;1.70;;;19.40;55.50;;;;;;4960289;28;20259;-71
2023/03/30 07:59:42;;;;;;;4.82;2.17;;;19.40;55.50;;;;;;4959331;28;20241;-71
2023/03/30 08:02:21;;;;;;;4.00;1.73;;;19.40;55.50;;;;;;4944972;28;20196;-70
2023/03/30 08:04:52;;;;;;;2.85;1.88;;;19.40;55.50;;;;;;4944409;28;20545;-70
2023/03/30 08:07:26;;;;;;;2.80;1.95;;;19.40;55.50;;;;;;4959313;28;20182;-71
2023/03/30 08:09:56;;;;;;;3.70;1.90;;;19.40;55.50;;;;;;4958997;28;20190;-71
2023/03/30 08:12:22;;;;;;;2.53;1.80;;;19.40;55.50;;;;;;4942887;28;20213;-71
2023/03/30 08:14:48;;;;;;;3.13;1.80;;;19.50;55.60;;;;;;4942949;28;20188;-71
2023/03/30 08:17:13;;;;;;;3.65;1.98;;;19.40;55.50;;;;;;4942910;28;20209;-71
2023/03/30 08:19:39;;;;;;;2.28;1.67;;;19.40;55.70;;;;;;4958629;28;20213;-71
2023/03/30 08:22:05;;;;;;;3.08;1.88;;;19.40;55.60;;;;;;4942774;28;20209;-71
2023/03/30 08:24:31;;;;;;;3.40;1.92;;;19.40;55.60;;;;;;4990589;28;20283;-71
2023/03/30 08:26:56;;;;;;;4.80;2.08;;;19.40;55.80;;;;;;4962291;28;20278;-71
2023/03/30 08:29:22;;;;;;;4.53;1.83;;;19.50;55.60;;;;;;4941884;28;20221;-71
2023/03/30 08:31:50;;;;;;;5.15;2.28;;;19.40;55.80;;;;;;4975573;28;20252;-71
2023/03/30 08:34:16;;;;;;;4.40;1.75;;;19.50;55.60;;;;;;4942848;28;20193;-71
2023/03/30 08:36:42;;;;;;;4.38;1.60;;;19.50;55.80;;;;;;4958493;28;20221;-70
2023/03/30 08:39:09;;;;;;;2.20;1.60;;;19.40;55.70;;;;;;4958021;28;20220;-71
2023/03/30 08:42:20;;;;;;;4.60;1.58;;;19.40;55.70;;;;;;4942037;28;20193;-71
2023/03/30 08:44:54;;;;;;;2.88;1.67;;;19.40;55.70;;;;;;4942592;28;20197;-71
2023/03/30 08:47:36;;;;;;;4.03;1.70;;;19.40;55.80;;;;;;4942333;28;20196;-71
2023/03/30 08:50:15;;;;;;;3.90;1.70;;;19.40;55.70;;;;;;4941879;28;20193;-70
2023/03/30 08:52:42;;;;;;;3.40;1.60;;;19.40;55.70;;;;;;4958244;28;20200;-71
2023/03/30 08:55:46;;;;;;;2.63;1.65;;;19.40;55.70;;;;;;4957963;28;20213;-71
2023/03/30 08:58:54;;;;;;;2.95;1.55;;;19.50;55.80;;;;;;4958009;28;20217;-71
2023/03/30 09:01:26;;;;;;;2.30;1.50;;;19.50;55.80;;;;;;4958343;28;20190;-71
2023/03/30 09:04:39;;;;;;;2.45;1.67;;;19.50;55.90;;;;;;4958376;28;20198;-71
2023/03/30 09:07:10;;;;;;;5.50;1.58;;;19.50;55.90;;;;;;4975410;28;20193;-71
2023/03/30 09:09:45;;;;;;;2.63;1.73;;;19.40;55.80;;;;;;4957825;28;20213;-71
2023/03/30 09:12:30;;;;;;;3.88;1.77;;;19.50;55.70;;;;;;4958143;28;20212;-71
2023/03/30 09:15:24;;;;;;;2.35;1.60;;;19.40;55.80;;;;;;4957804;28;20190;-71
2023/03/30 09:17:59;;;;;;;2.05;1.33;;;19.40;56.10;;;;;;4952650;28;20316;-71
2023/03/30 09:20:36;;;;;;;1.73;1.35;;;19.40;56.20;;;;;;4990311;28;20264;-71
2023/03/30 09:23:03;;;;;;;2.53;1.40;;;19.40;56.10;;;;;;4958018;28;20261;-71
2023/03/30 09:25:48;;;;;;;3.80;1.90;;;19.40;55.90;;;;;;4957614;28;20676;-71
2023/03/30 09:28:52;;;;;;;2.75;1.67;;;19.40;56.10;;;;;;4957411;28;20221;-71
2023/03/30 09:31:31;;;;;;;2.55;1.70;;;19.40;56.10;;;;;;4957662;28;20233;-71
2023/03/30 09:34:48;;;;;;;4.40;1.50;;;19.40;56.00;;;;;;4957628;28;20205;-71
2023/03/30 09:37:17;;;;;;;2.47;1.50;;;19.40;55.90;;;;;;4899555;29;20704;-71
2023/03/30 09:39:44;;;;;;;2.15;1.30;;;19.40;55.90;;;;;;4985217;28;20231;-71
2023/03/30 09:42:46;;;;;;;2.42;1.58;;;19.40;56.00;;;;;;4957516;28;20190;-71
2023/03/30 09:45:30;;;;;;;2.47;1.02;;;19.30;56.10;;;;;;4941789;28;20185;-71
2023/03/30 09:48:02;;;;;;;1.42;1.33;;;19.40;56.00;;;;;;4989754;28;20216;-71
2023/03/30 09:50:28;;;;;;;2.17;1.40;;;19.40;56.00;;;;;;4974378;28;20241;-72
2023/03/30 09:53:00;;;;;;;2.78;1.25;;;19.40;56.00;;;;;;4969640;28;20210;-71
2023/03/30 09:55:28;;;;;;;2.13;1.30;;;19.40;55.90;;;;;;4941668;28;20288;-70
2023/03/30 09:58:17;;;;;;;3.28;1.48;;;19.40;56.00;;;;;;4942515;28;20252;-71
2023/03/30 10:00:45;;;;;;;2.30;1.30;;;19.40;56.00;;;;;;4959135;28;20256;-71
2023/03/30 10:03:22;;;;;;;1.83;1.30;;;19.40;56.00;;;;;;4974954;28;20274;-71
2023/03/30 10:06:11;;;;;;;1.73;1.10;;;19.40;56.00;;;;;;4958090;28;20233;-72
2023/03/30 10:08:55;;;;;;;2.10;1.33;;;19.40;56.00;;;;;;4958597;28;20217;-72
2023/03/30 10:11:42;;;;;;;1.70;1.60;;;19.30;55.90;;;;;;4958201;28;20197;-72
2023/03/30 10:14:26;;;;;;;1.67;1.27;;;19.40;56.00;;;;;;4963353;28;20233;-72
2023/03/30 10:16:52;;;;;;;2.28;1.50;;;19.40;56.10;;;;;;4938542;29;20214;-71
2023/03/30 10:19:21;;;;;;;2.30;1.58;;;19.40;56.00;;;;;;4957486;28;20206;-72
2023/03/30 10:21:53;;;;;;;1.75;1.38;;;19.40;56.10;;;;;;4942022;28;20200;-72
2023/03/30 10:24:28;;;;;;;2.13;1.23;;;19.40;56.00;;;;;;4958490;28;20197;-71
2023/03/30 10:27:12;;;;;;;2.25;1.40;;;19.30;55.90;;;;;;4958659;28;20192;-71
2023/03/30 10:29:45;;;;;;;2.00;1.42;;;19.40;56.00;;;;;;4966955;28;20213;-71
2023/03/30 10:32:24;;;;;;;2.08;1.30;;;19.30;56.00;;;;;;4974126;28;20197;-71
2023/03/30 10:34:55;;;;;;;2.03;1.35;;;19.30;56.00;;;;;;4957377;28;20192;-71
2023/03/30 10:37:38;;;;;;;1.92;1.50;;;19.30;56.00;;;;;;4982068;28;20194;-71
2023/03/30 10:40:32;;;;;;;1.60;1.20;;;19.40;56.10;;;;;;4952712;28;20201;-71
2023/03/30 10:43:00;;;;;;;2.25;1.60;;;19.40;56.10;;;;;;4952494;28;20235;-71
2023/03/30 10:45:41;;;;;;;2.25;1.48;;;19.40;56.10;;;;;;4940505;28;20204;-71
2023/03/30 10:48:13;;;;;;;1.48;1.25;;;19.30;56.00;;;;;;4989056;28;20217;-71
2023/03/30 10:51:03;;;;;;;2.45;1.42;;;19.30;56.00;;;;;;4956913;28;20284;-71
2023/03/30 10:53:57;;;;;;;1.77;1.23;;;19.40;56.10;;;;;;4940849;28;20251;-71
2023/03/30 10:56:50;;;;;;;1.77;1.25;;;19.30;56.00;;;;;;4974011;28;20213;-70
2023/03/30 10:59:35;;;;;;;2.05;1.20;;;19.30;56.10;;;;;;4973530;28;20221;-71
2023/03/30 11:02:38;;;;;;;2.47;1.45;;;19.40;56.20;;;;;;4940348;28;20244;-71
2023/03/30 11:05:16;;;;;;;2.47;1.60;;;19.30;56.10;;;;;;4940535;28;20661;-71
2023/03/30 11:07:57;;;;;;;1.95;1.00;;;19.40;56.10;;;;;;4949618;28;20223;-71
2023/03/30 11:10:47;;;;;;;1.52;1.20;;;19.30;56.10;;;;;;4973145;28;20202;-71
2023/03/30 11:13:27;;;;;;;3.45;1.42;;;19.30;56.10;;;;;;4946146;28;20194;-71
2023/03/30 11:16:00;;;;;;;1.75;1.50;;;19.30;56.10;;;;;;4956344;28;20209;-71
2023/03/30 11:18:46;;;;;;;1.67;1.38;;;19.30;56.10;;;;;;4955982;28;20228;-71
2023/03/30 11:21:32;;;;;;;3.03;1.40;;;19.30;56.10;;;;;;4938812;28;20185;-71
2023/03/30 11:24:11;;;;;;;2.13;1.45;;;19.30;56.20;;;;;;4983517;28;20280;-71
2023/03/30 11:27:02;;;;;;;2.17;1.50;;;19.40;56.30;;;;;;4948433;28;20280;-71
2023/03/30 11:30:19;;;;;;;2.45;1.98;;;19.30;56.20;;;;;;4955867;28;20217;-71
2023/03/30 11:33:16;;;;;;;2.75;1.42;;;19.30;56.20;;;;;;4895292;29;20208;-71
2023/03/30 11:36:17;;;;;;;3.25;1.75;;;19.30;56.20;;;;;;4965391;28;20221;-71
2023/03/30 11:39:03;;;;;;;3.03;1.60;;;19.40;56.90;;;;;;4989290;28;20225;-71
2023/03/30 11:41:54;;;;;;;3.35;1.90;;;19.40;56.60;;;;;;4992542;28;20236;-71
2023/03/30 11:44:21;;;;;;;3.50;1.58;;;19.40;56.90;;;;;;4960101;28;20189;-72
2023/03/30 11:47:20;;;;;;;3.63;1.65;;;19.40;56.80;;;;;;4960961;28;20190;-71
2023/03/30 11:50:12;;;;;;;2.45;1.85;;;19.40;56.80;;;;;;4971556;28;20194;-71
2023/03/30 11:53:12;;;;;;;2.35;1.40;;;19.40;56.70;;;;;;4969202;28;20202;-71
2023/03/30 11:55:53;;;;;;;1.77;1.60;;;19.40;56.60;;;;;;4993202;28;20217;-71
2023/03/30 11:58:42;;;;;;;3.55;1.63;;;19.40;56.60;;;;;;4976034;23;20318;-69
2023/03/30 12:01:41;;;;;;;4.90;1.70;;;19.50;56.60;;;;;;5007597;28;20184;-69
2023/03/30 12:04:11;;;;;;;2.58;1.45;;;19.50;56.70;;;;;;4994310;28;20246;-68
2023/03/30 12:06:56;;;;;;;1.83;1.50;;;19.50;56.70;;;;;;4981096;28;20184;-69
2023/03/30 12:10:03;;;;;;;3.85;1.73;;;19.50;56.80;;;;;;4997078;28;20638;-69
2023/03/30 12:12:38;;;;;;;2.40;1.50;;;19.50;56.70;;;;;;4950875;29;20227;-69
2023/03/30 12:15:45;;;;;;;3.30;1.60;;;19.40;56.60;;;;;;4919043;29;20206;-69
2023/03/30 12:18:41;;;;;;;1.70;1.38;;;19.40;56.70;;;;;;5004084;28;20228;-69
2023/03/30 12:21:29;;;;;;;2.28;1.38;;;19.40;56.60;;;;;;5002482;28;20214;-68
2023/03/30 12:24:00;;;;;;;2.78;1.50;;;19.40;56.60;;;;;;4991441;28;20196;-68
2023/03/30 12:26:36;;;;;;;1.95;1.70;;;19.40;56.60;;;;;;5014626;28;20192;-68
2023/03/30 12:29:16;;;;;;;3.70;1.70;;;19.40;56.60;;;;;;5012981;28;20751;-69
2023/03/30 12:31:57;;;;;;;3.28;1.50;;;19.50;56.70;;;;;;5007191;28;20203;-69
2023/03/30 12:34:39;;;;;;;3.10;1.50;;;19.40;56.60;;;;;;4997145;28;20191;-69
2023/03/30 12:37:13;;;;;;;1.88;1.60;;;19.40;56.60;;;;;;5014897;28;20199;-69
2023/03/30 12:39:47;;;;;;;1.70;1.52;;;19.40;56.60;;;;;;5014234;28;20265;-69
2023/03/30 12:42:25;;;;;;;3.95;1.63;;;19.40;56.50;;;;;;4996884;28;20198;-69
2023/03/30 12:45:03;;;;;;;2.20;1.77;;;19.40;56.50;;;;;;4982656;28;20207;-69
2023/03/30 12:48:15;;;;;;;1.98;1.42;;;19.50;56.60;;;;;;4997173;28;20194;-68
2023/03/30 12:51:31;;;;;;;2.53;1.65;;;19.50;56.60;;;;;;5007206;28;20214;-68
2023/03/30 12:54:28;;;;;;;2.83;1.58;;;19.40;56.50;;;;;;4958985;28;20207;-68
2023/03/30 12:57:21;;;;;;;2.55;1.65;;;19.40;56.50;;;;;;4994544;28;20208;-69
2023/03/30 13:00:30;;;;;;;3.60;1.52;;;19.40;56.40;;;;;;5006473;28;20216;-69
2023/03/30 13:03:20;;;;;;;1.85;1.65;;;19.40;56.40;;;;;;4928335;29;20195;-69
2023/03/30 13:05:52;;;;;;;3.13;1.48;;;19.40;56.40;;;;;;4981328;28;20192;-68
2023/03/30 13:08:40;;;;;;;2.70;1.60;;;19.40;56.40;;;;;;4996603;28;20227;-70
2023/03/30 13:11:20;;;;;;;1.80;1.50;;;19.40;56.40;;;;;;5013830;28;20203;-68
2023/03/30 13:13:59;;;;;;;2.70;1.60;;;19.40;56.50;;;;;;4980874;28;20318;-69
2023/03/30 13:17:10;;;;;;;2.03;1.60;;;19.50;56.50;;;;;;4996178;28;20219;-68
2023/03/30 13:19:36;;;;;;;1.95;1.60;;;19.40;56.40;;;;;;4979745;28;20219;-69
2023/03/30 13:22:10;;;;;;;1.90;1.58;;;19.50;56.50;;;;;;4996109;28;20250;-69
2023/03/30 13:24:54;;;;;;;2.03;1.77;;;19.50;56.50;;;;;;4979680;28;20252;-69
2023/03/30 13:27:24;;;;;;;2.03;1.60;;;19.50;56.50;;;;;;4995655;28;20202;-68
2023/03/30 13:30:01;;;;;;;1.92;1.35;;;19.50;56.50;;;;;;4995813;28;20262;-69
2023/03/30 13:32:59;;;;;;;2.58;1.35;;;19.50;56.40;;;;;;4995876;28;20261;-68
2023/03/30 13:35:58;;;;;;;3.55;1.60;;;19.50;56.40;;;;;;4995777;28;20678;-69
2023/03/30 13:38:58;;;;;;;1.25;1.15;;;19.50;56.50;;;;;;4995985;28;20208;-69
2023/03/30 13:41:48;;;;;;;1.58;1.42;;;19.50;56.40;;;;;;4996309;28;20185;-69
2023/03/30 13:44:41;;;;;;;2.42;1.70;;;19.50;56.40;;;;;;4995895;28;20192;-68
2023/03/30 13:47:44;;;;;;;3.45;1.27;;;19.50;56.40;;;;;;5007337;28;20199;-68
2023/03/30 13:50:24;;;;;;;2.42;1.85;;;19.50;56.40;;;;;;4995638;28;20215;-69